Time;durP1;ratioP1;P1;durP2;ratioP2;P2;SDS_P1;SDS_P2;PMS_P1;PMS_P2;Temp;Humidity;BMP_temperature;BMP_pressure;BME280_temperature;BME280_humidity;BME280_pressure;Samples;Min_cycle;Max_cycle;Signal;HPM_P1;HPM_P2
2023/02/24 00:02:03;;;;;;;14.40;6.43;;;7.80;99.90;;;;;;5031486;28;20056;-85
2023/02/24 00:04:34;;;;;;;18.45;6.40;;;7.80;99.90;;;;;;5033667;28;20505;-85
2023/02/24 00:07:01;;;;;;;15.70;6.75;;;7.80;99.90;;;;;;5035926;28;20136;-85
2023/02/24 00:09:29;;;;;;;17.35;6.45;;;7.80;99.90;;;;;;5052023;28;20046;-85
2023/02/24 00:12:03;;;;;;;14.40;5.85;;;7.80;99.90;;;;;;5025611;28;20049;-86
2023/02/24 00:14:33;;;;;;;14.23;6.15;;;7.80;99.90;;;;;;5045863;28;20498;-86
2023/02/24 00:16:59;;;;;;;12.93;5.80;;;7.80;99.90;;;;;;5033680;28;20133;-85
2023/02/24 00:19:31;;;;;;;19.85;6.28;;;7.80;99.90;;;;;;5037379;28;20414;-85
2023/02/24 00:21:58;;;;;;;13.98;5.45;;;7.80;99.90;;;;;;5037860;28;20045;-85
2023/02/24 00:24:25;;;;;;;16.90;6.85;;;7.70;99.90;;;;;;5024601;28;20134;-83
2023/02/24 00:26:54;;;;;;;16.13;6.00;;;7.70;99.90;;;;;;5024725;28;20042;-83
2023/02/24 00:29:22;;;;;;;15.57;6.38;;;7.70;99.90;;;;;;5044069;28;20469;-83
2023/02/24 00:31:57;;;;;;;18.27;6.45;;;7.70;99.90;;;;;;5035565;28;20120;-83
2023/02/24 00:34:26;;;;;;;12.05;5.28;;;7.70;99.90;;;;;;5032494;28;20129;-84
2023/02/24 00:36:53;;;;;;;16.73;5.70;;;7.70;99.90;;;;;;5034544;28;20109;-83
2023/02/24 00:39:28;;;;;;;12.98;5.38;;;7.70;99.90;;;;;;5023445;28;20042;-83
2023/02/24 00:42:03;;;;;;;22.38;5.68;;;7.70;99.90;;;;;;5026769;28;20497;-84
2023/02/24 00:44:44;;;;;;;16.45;5.68;;;7.70;99.90;;;;;;5031456;28;20189;-83
2023/02/24 00:47:12;;;;;;;15.80;5.47;;;7.80;99.90;;;;;;5042159;28;20140;-84
2023/02/24 00:49:42;;;;;;;21.38;7.30;;;7.80;99.90;;;;;;5036577;28;20455;-85
2023/02/24 00:52:16;;;;;;;20.83;7.47;;;7.80;99.90;;;;;;5024756;28;20117;-86
2023/02/24 00:54:44;;;;;;;33.45;9.75;;;7.80;99.90;;;;;;5022934;28;20144;-85
2023/02/24 00:57:13;;;;;;;28.25;8.73;;;7.90;99.90;;;;;;5032347;28;20110;-85
2023/02/24 00:59:39;;;;;;;17.52;6.75;;;7.90;99.90;;;;;;5031664;28;20069;-86
2023/02/24 01:02:07;;;;;;;15.05;6.93;;;7.90;99.90;;;;;;5033695;28;20497;-85
2023/02/24 01:04:36;;;;;;;21.02;7.88;;;7.90;99.90;;;;;;5039383;28;20099;-85
2023/02/24 01:07:09;;;;;;;45.43;9.97;;;8.00;99.90;;;;;;5028844;28;20639;-85
2023/02/24 01:09:37;;;;;;;110.60;12.25;;;8.00;99.90;;;;;;5023984;28;20060;-85
2023/02/24 01:14:52;;;;;;;31.25;11.52;;;8.00;99.90;;;;;;5032073;28;20042;-85
2023/02/24 01:17:20;;;;;;;26.80;11.45;;;8.10;99.90;;;;;;5030987;28;20052;-86
2023/02/24 01:19:48;;;;;;;22.38;8.57;;;8.10;99.90;;;;;;5043321;28;20526;-85
2023/02/24 01:22:17;;;;;;;18.95;8.27;;;8.10;99.90;;;;;;5022781;28;20106;-85
2023/02/24 01:24:44;;;;;;;19.05;7.47;;;8.00;99.90;;;;;;5028746;28;20046;-83
2023/02/24 01:27:12;;;;;;;14.23;6.97;;;8.00;99.90;;;;;;5040862;28;20128;-84
2023/02/24 01:29:39;;;;;;;17.55;7.10;;;8.10;99.90;;;;;;5048297;28;20069;-83
2023/02/24 01:32:11;;;;;;;16.25;7.00;;;8.10;99.90;;;;;;5036969;28;20072;-84
2023/02/24 01:34:41;;;;;;;14.57;5.25;;;8.10;99.90;;;;;;5028513;28;20138;-85
2023/02/24 01:37:08;;;;;;;14.77;5.72;;;8.10;99.90;;;;;;5022748;28;20483;-85
2023/02/24 01:39:35;;;;;;;12.52;4.50;;;8.00;99.90;;;;;;5026223;28;20489;-84
2023/02/24 01:42:05;;;;;;;11.98;5.18;;;8.00;99.90;;;;;;5028119;28;20077;-85
2023/02/24 01:44:32;;;;;;;17.08;5.78;;;8.00;99.90;;;;;;5027133;28;20077;-85
2023/02/24 01:47:02;;;;;;;13.88;4.70;;;7.90;99.90;;;;;;5030789;28;20050;-85
2023/02/24 01:49:38;;;;;;;15.98;4.60;;;7.90;99.90;;;;;;5023467;28;20465;-85
2023/02/24 01:52:19;;;;;;;12.55;4.35;;;7.90;99.90;;;;;;5039018;28;20109;-85
2023/02/24 01:54:53;;;;;;;10.63;4.30;;;7.80;99.90;;;;;;5040230;28;20132;-85
2023/02/24 01:57:22;;;;;;;12.93;5.82;;;7.80;99.90;;;;;;5027678;28;20046;-85
2023/02/24 01:59:52;;;;;;;14.73;5.70;;;7.70;99.90;;;;;;5033463;28;20476;-85
2023/02/24 02:02:21;;;;;;;19.48;6.32;;;7.70;99.90;;;;;;5027730;28;20050;-85
2023/02/24 02:04:59;;;;;;;13.13;5.35;;;7.70;99.90;;;;;;5022217;28;20042;-85
2023/02/24 02:07:28;;;;;;;15.38;4.85;;;7.70;99.90;;;;;;5024633;28;20136;-85
2023/02/24 02:09:59;;;;;;;11.25;5.65;;;7.70;99.90;;;;;;5021113;28;20081;-85
2023/02/24 02:12:26;;;;;;;10.40;5.10;;;7.70;99.90;;;;;;5028980;28;20060;-84
2023/02/24 02:14:57;;;;;;;17.45;5.97;;;7.60;99.90;;;;;;5033838;28;20506;-85
2023/02/24 02:17:30;;;;;;;;;;;7.60;99.90;;;;;;5029182;28;20571;-85
2023/02/24 02:20:00;;;;;;;14.65;6.00;;;7.70;99.90;;;;;;5023010;28;19921;-85
2023/02/24 02:22:51;;;;;;;12.63;5.77;;;7.70;99.90;;;;;;5025618;28;20132;-85
2023/02/24 02:25:42;;;;;;;14.25;4.80;;;7.70;99.90;;;;;;5031202;28;20660;-84
2023/02/24 02:28:24;;;;;;;11.43;5.05;;;7.70;99.90;;;;;;5029596;28;20053;-85
2023/02/24 02:31:11;;;;;;;15.57;5.25;;;7.70;99.90;;;;;;5042134;28;20054;-85
2023/02/24 02:34:12;;;;;;;11.68;4.63;;;7.70;99.90;;;;;;5025075;28;20560;-85
2023/02/24 02:37:04;;;;;;;19.20;6.18;;;7.80;99.90;;;;;;5023682;28;20052;-86
2023/02/24 02:39:57;;;;;;;16.77;5.85;;;7.80;99.90;;;;;;5030043;28;20080;-85
2023/02/24 02:42:50;;;;;;;20.05;7.65;;;7.80;99.90;;;;;;5035168;28;20057;-85
2023/02/24 02:45:27;;;;;;;13.93;6.03;;;7.90;99.90;;;;;;5023009;28;20046;-85
2023/02/24 02:48:24;;;;;;;16.27;6.07;;;7.90;99.90;;;;;;5025195;28;20082;-85
2023/02/24 02:50:56;;;;;;;15.50;6.10;;;7.90;99.90;;;;;;5041601;28;20049;-85
2023/02/24 02:53:36;;;;;;;16.20;7.30;;;7.90;99.90;;;;;;5030322;28;20077;-86
2023/02/24 02:56:11;;;;;;;;;;;8.00;99.90;;;;;;5031114;28;20092;-85
2023/02/24 02:58:44;;;;;;;14.80;5.68;;;7.90;99.90;;;;;;5028416;28;20029;-85
2023/02/24 03:01:19;;;;;;;13.68;5.25;;;8.00;99.90;;;;;;5024169;28;20104;-85
2023/02/24 03:03:50;;;;;;;10.82;5.43;;;8.00;99.90;;;;;;5030860;28;20068;-85
2023/02/24 03:06:27;;;;;;;13.00;6.15;;;8.00;99.90;;;;;;5040161;28;20085;-85
2023/02/24 03:08:59;;;;;;;12.15;6.65;;;8.00;99.90;;;;;;5063856;28;20472;-85
2023/02/24 03:11:26;;;;;;;12.23;6.10;;;8.10;99.90;;;;;;5041174;28;20101;-85
2023/02/24 03:13:56;;;;;;;15.32;5.70;;;8.10;99.90;;;;;;5039122;28;20058;-84
2023/02/24 03:16:25;;;;;;;11.07;5.32;;;8.10;99.90;;;;;;5026613;28;20105;-85
2023/02/24 03:19:02;;;;;;;17.15;6.20;;;8.10;99.90;;;;;;5022410;28;20045;-85
2023/02/24 03:21:35;;;;;;;13.85;5.15;;;8.10;99.90;;;;;;5025809;28;20125;-85
2023/02/24 03:24:05;;;;;;;13.82;5.47;;;8.10;99.90;;;;;;5030080;28;20057;-85
2023/02/24 03:26:41;;;;;;;11.73;5.15;;;8.20;99.90;;;;;;5043734;28;20048;-85
2023/02/24 03:29:22;;;;;;;17.45;6.03;;;8.20;99.90;;;;;;5019260;28;20045;-84
2023/02/24 03:31:58;;;;;;;15.35;6.43;;;8.20;99.90;;;;;;5035257;28;20049;-85
2023/02/24 03:34:43;;;;;;;18.92;6.22;;;8.20;99.90;;;;;;5044637;28;20197;-84
2023/02/24 03:37:10;;;;;;;15.05;6.35;;;8.30;99.90;;;;;;5028362;28;20133;-85
2023/02/24 03:39:38;;;;;;;22.05;7.07;;;8.30;99.90;;;;;;5032710;28;20046;-84
2023/02/24 03:42:11;;;;;;;18.13;6.63;;;8.30;99.90;;;;;;5026271;28;20140;-85
2023/02/24 03:44:37;;;;;;;13.88;6.43;;;8.30;99.90;;;;;;5020777;28;20046;-85
2023/02/24 03:47:04;;;;;;;18.17;7.45;;;8.40;99.90;;;;;;5028787;28;20084;-86
2023/02/24 03:49:31;;;;;;;18.58;8.55;;;8.40;99.90;;;;;;5031491;28;20524;-84
2023/02/24 03:52:20;;;;;;;22.13;8.55;;;8.40;99.90;;;;;;5025434;28;20047;-85
2023/02/24 03:55:13;;;;;;;23.25;9.52;;;8.40;99.90;;;;;;5024118;28;20132;-85
2023/02/24 03:58:02;;;;;;;26.88;11.00;;;8.40;99.90;;;;;;5015152;28;20398;-85
2023/02/24 04:00:47;;;;;;;37.93;12.40;;;8.40;99.90;;;;;;5036380;28;20045;-84
2023/02/24 04:03:36;;;;;;;21.98;12.27;;;8.40;99.90;;;;;;5020544;28;20045;-85
2023/02/24 04:06:13;;;;;;;33.17;11.85;;;8.40;99.90;;;;;;5027922;28;20046;-85
2023/02/24 04:09:01;;;;;;;21.50;11.73;;;8.40;99.90;;;;;;5027821;28;20105;-85
2023/02/24 04:11:40;;;;;;;25.77;12.82;;;8.40;99.90;;;;;;5027101;28;20129;-85
2023/02/24 04:14:39;;;;;;;23.02;12.27;;;8.50;99.90;;;;;;5017632;28;20611;-84
2023/02/24 04:17:19;;;;;;;26.40;12.55;;;8.50;99.90;;;;;;5000441;28;20136;-84
2023/02/24 04:19:49;;;;;;;25.67;11.93;;;8.40;99.90;;;;;;5026801;28;20114;-84
2023/02/24 04:22:19;;;;;;;32.58;14.13;;;8.40;99.90;;;;;;5027420;28;20323;-85
2023/02/24 04:24:49;;;;;;;34.00;15.52;;;8.40;99.90;;;;;;5012439;28;20038;-84
2023/02/24 04:27:18;;;;;;;30.70;13.95;;;8.30;99.90;;;;;;5018760;28;20132;-84
2023/02/24 04:29:55;;;;;;;34.53;16.35;;;8.30;99.90;;;;;;5021596;28;20645;-84
2023/02/24 04:32:27;;;;;;;33.45;15.40;;;8.20;99.90;;;;;;5025186;28;20402;-84
2023/02/24 04:35:05;;;;;;;29.95;15.75;;;8.20;99.90;;;;;;5030316;28;20472;-85
2023/02/24 04:37:37;;;;;;;31.85;14.98;;;8.20;99.90;;;;;;5024212;28;20054;-85
2023/02/24 04:40:09;;;;;;;30.17;15.77;;;8.10;99.90;;;;;;5020696;28;20046;-85
2023/02/24 04:42:45;;;;;;;28.23;13.90;;;8.20;99.90;;;;;;5043307;28;20045;-85
2023/02/24 04:45:15;;;;;;;23.95;13.50;;;8.20;99.90;;;;;;5032222;28;20090;-84
2023/02/24 04:47:45;;;;;;;20.60;12.48;;;8.20;99.90;;;;;;5034079;28;20076;-85
2023/02/24 04:50:21;;;;;;;23.48;11.23;;;8.30;99.90;;;;;;5040891;28;20050;-85
2023/02/24 04:53:05;;;;;;;23.10;11.10;;;8.30;99.90;;;;;;5028868;28;20054;-85
2023/02/24 04:55:39;;;;;;;24.85;10.52;;;8.40;99.90;;;;;;5024149;28;20073;-85
2023/02/24 04:58:18;;;;;;;21.52;10.95;;;8.40;99.90;;;;;;5024388;28;20063;-85
2023/02/24 05:00:47;;;;;;;23.75;13.85;;;8.50;99.90;;;;;;5036342;28;20054;-85
2023/02/24 05:03:16;;;;;;;31.20;16.25;;;8.50;99.90;;;;;;5028336;28;20046;-85
2023/02/24 05:05:55;;;;;;;29.27;17.00;;;8.60;99.90;;;;;;5045508;28;20085;-85
2023/02/24 05:08:23;;;;;;;32.53;17.20;;;8.60;99.90;;;;;;5018048;28;20045;-85
2023/02/24 05:10:50;;;;;;;32.08;16.90;;;8.70;99.90;;;;;;5024867;28;20038;-85
2023/02/24 05:13:25;;;;;;;29.60;16.83;;;8.70;99.90;;;;;;5025962;28;20046;-84
2023/02/24 05:15:58;;;;;;;31.48;17.25;;;8.70;99.90;;;;;;5029028;28;20504;-84
2023/02/24 05:18:25;;;;;;;29.00;16.90;;;8.80;99.90;;;;;;5035775;28;20049;-85
2023/02/24 05:21:40;;;;;;;35.65;19.67;;;8.80;99.90;;;;;;5020653;28;20050;-84
2023/02/24 05:23:45;;;;;;;36.42;17.65;;;8.80;99.90;;;;;;5014366;28;20049;-85
2023/02/24 05:26:15;;;;;;;35.17;18.25;;;8.80;99.90;;;;;;5038425;28;20061;-85
2023/02/24 05:28:48;;;;;;;36.80;19.88;;;8.90;99.90;;;;;;5028304;28;20049;-84
2023/02/24 05:31:18;;;;;;;30.38;17.98;;;8.90;99.90;;;;;;5047196;28;20041;-84
2023/02/24 05:33:53;;;;;;;30.85;16.80;;;8.90;99.90;;;;;;5043042;28;20054;-84
2023/02/24 05:36:21;;;;;;;30.75;16.50;;;8.90;99.90;;;;;;5024482;28;20119;-84
2023/02/24 05:38:54;;;;;;;25.10;12.48;;;9.00;99.90;;;;;;5033936;28;20042;-84
2023/02/24 05:41:31;;;;;;;22.63;11.32;;;9.00;99.90;;;;;;5022206;28;20049;-83
2023/02/24 05:44:01;;;;;;;24.63;10.40;;;9.00;99.90;;;;;;5030482;28;20460;-84
2023/02/24 05:46:31;;;;;;;21.15;10.50;;;9.00;99.90;;;;;;5028491;28;20037;-84
2023/02/24 05:49:03;;;;;;;;;;;9.00;99.90;;;;;;5015695;28;20096;-84
2023/02/24 05:51:34;;;;;;;15.02;6.97;;;9.00;99.90;;;;;;5031876;28;19928;-84
2023/02/24 05:54:09;;;;;;;20.73;8.15;;;9.00;99.90;;;;;;5037442;28;20055;-84
2023/02/24 05:56:41;;;;;;;16.33;7.43;;;9.00;99.90;;;;;;5040662;28;20046;-85
2023/02/24 05:59:09;;;;;;;16.60;7.68;;;9.00;99.90;;;;;;5030368;28;20572;-85
2023/02/24 06:01:40;;;;;;;13.48;6.78;;;8.90;99.90;;;;;;5050567;28;20054;-84
2023/02/24 06:04:08;;;;;;;14.27;7.03;;;8.90;99.90;;;;;;5017986;28;20065;-84
2023/02/24 06:06:37;;;;;;;18.25;6.72;;;8.90;99.90;;;;;;5041553;28;20508;-85
2023/02/24 06:09:15;;;;;;;18.27;6.40;;;8.90;99.90;;;;;;5028210;28;20493;-85
2023/02/24 06:11:43;;;;;;;13.02;6.10;;;8.90;99.90;;;;;;5029663;28;20054;-84
2023/02/24 06:14:11;;;;;;;17.83;6.55;;;8.90;99.90;;;;;;5034816;28;20056;-84
2023/02/24 06:16:40;;;;;;;15.77;7.55;;;8.90;99.90;;;;;;5032636;28;20068;-84
2023/02/24 06:19:09;;;;;;;18.38;6.15;;;8.90;99.90;;;;;;5023308;28;20042;-84
2023/02/24 06:21:40;;;;;;;23.58;6.53;;;8.90;99.90;;;;;;5026375;28;20072;-84
2023/02/24 06:24:14;;;;;;;18.13;6.68;;;8.90;99.90;;;;;;5029169;28;20046;-84
2023/02/24 06:26:44;;;;;;;17.25;7.95;;;8.90;99.90;;;;;;5036680;28;20042;-85
2023/02/24 06:29:16;;;;;;;17.15;6.88;;;8.90;99.90;;;;;;5036829;28;20041;-83
2023/02/24 06:31:43;;;;;;;16.08;7.13;;;8.90;99.90;;;;;;5026015;28;20065;-84
2023/02/24 06:34:12;;;;;;;20.00;8.50;;;8.90;99.90;;;;;;5033330;28;20441;-84
2023/02/24 06:36:39;;;;;;;15.85;8.18;;;8.90;99.90;;;;;;5034538;28;20054;-84
2023/02/24 06:39:06;;;;;;;22.05;8.52;;;8.90;99.90;;;;;;5029582;28;20107;-84
2023/02/24 06:41:36;;;;;;;11.98;6.65;;;8.90;99.90;;;;;;5032147;28;20492;-84
2023/02/24 06:44:03;;;;;;;27.08;7.78;;;8.90;99.90;;;;;;5032758;28;20109;-85
2023/02/24 06:46:31;;;;;;;16.50;7.10;;;8.90;99.90;;;;;;5017265;28;20057;-84
2023/02/24 06:48:57;;;;;;;17.33;7.90;;;8.90;99.90;;;;;;5020074;28;20045;-84
2023/02/24 06:51:28;;;;;;;16.73;6.68;;;8.90;99.90;;;;;;5026030;28;20056;-84
2023/02/24 06:53:58;;;;;;;24.83;7.38;;;9.00;99.90;;;;;;5031345;28;20057;-84
2023/02/24 06:56:26;;;;;;;20.97;9.13;;;9.00;99.90;;;;;;5028190;28;20054;-84
2023/02/24 06:58:55;;;;;;;15.80;6.97;;;9.00;99.90;;;;;;5029706;28;20316;-84
2023/02/24 07:01:24;;;;;;;13.20;6.50;;;9.00;99.90;;;;;;5021444;28;20432;-84
2023/02/24 07:06:37;;;;;;;16.70;8.15;;;9.10;99.90;;;;;;5027539;28;20045;-84
2023/02/24 07:09:07;;;;;;;22.33;9.63;;;9.10;99.90;;;;;;5033692;28;20041;-84
2023/02/24 07:11:36;;;;;;;20.48;10.73;;;9.10;99.90;;;;;;5034665;28;20077;-84
2023/02/24 07:14:04;;;;;;;24.10;10.73;;;9.10;99.90;;;;;;5012545;28;20050;-85
2023/02/24 07:16:33;;;;;;;27.17;12.93;;;9.10;99.90;;;;;;5024806;28;20054;-85
2023/02/24 07:19:03;;;;;;;20.30;11.60;;;9.20;99.90;;;;;;5028196;28;20045;-84
2023/02/24 07:21:38;;;;;;;26.13;13.60;;;9.20;99.90;;;;;;5027400;28;20136;-86
2023/02/24 07:24:07;;;;;;;26.73;14.80;;;9.30;99.90;;;;;;5030954;28;20042;-84
2023/02/24 07:26:34;;;;;;;28.95;16.48;;;9.30;99.90;;;;;;5035754;28;20106;-85
2023/02/24 07:29:05;;;;;;;29.95;15.75;;;9.30;99.90;;;;;;5029414;28;20033;-85
2023/02/24 07:31:33;;;;;;;28.33;16.10;;;9.30;99.90;;;;;;5022994;28;20104;-85
2023/02/24 07:34:00;;;;;;;30.55;15.82;;;9.40;99.90;;;;;;5030172;28;20468;-84
2023/02/24 07:36:29;;;;;;;25.35;14.55;;;9.40;99.90;;;;;;5033500;28;20539;-85
2023/02/24 07:38:58;;;;;;;24.17;13.30;;;9.40;99.90;;;;;;5032087;28;20081;-85
2023/02/24 07:41:25;;;;;;;31.80;16.67;;;9.40;99.90;;;;;;5026815;28;20045;-85
2023/02/24 07:43:53;;;;;;;23.95;13.55;;;9.40;99.90;;;;;;5021914;28;20068;-83
2023/02/24 07:46:24;;;;;;;26.55;14.40;;;9.40;99.90;;;;;;5023120;28;20054;-85
2023/02/24 07:48:51;;;;;;;27.00;13.20;;;9.50;99.90;;;;;;5044406;28;20479;-85
2023/02/24 07:51:23;;;;;;;24.02;13.50;;;9.50;99.90;;;;;;5033921;28;20075;-85
2023/02/24 07:53:52;;;;;;;21.05;12.88;;;9.40;99.90;;;;;;5031107;28;20128;-84
2023/02/24 07:56:25;;;;;;;25.88;12.48;;;9.50;99.90;;;;;;5019757;28;20688;-85
2023/02/24 07:59:18;;;;;;;26.83;13.65;;;9.40;99.90;;;;;;5030670;28;20049;-84
2023/02/24 08:01:54;;;;;;;25.17;12.90;;;9.40;99.90;;;;;;5029084;28;20045;-84
2023/02/24 08:04:25;;;;;;;25.15;12.68;;;9.40;99.90;;;;;;5023750;28;20077;-84
2023/02/24 08:06:56;;;;;;;28.48;14.13;;;9.50;99.90;;;;;;5029270;28;20588;-85
2023/02/24 08:10:08;;;;;;;27.23;13.00;;;9.50;99.90;;;;;;5023588;28;20136;-85
2023/02/24 08:12:20;;;;;;;24.10;12.13;;;9.50;99.90;;;;;;5024968;28;20100;-85
2023/02/24 08:14:49;;;;;;;22.35;12.75;;;9.50;99.90;;;;;;5026793;28;20042;-84
2023/02/24 08:17:22;;;;;;;20.77;12.27;;;9.50;99.90;;;;;;5033252;28;20076;-85
2023/02/24 08:22:45;;;;;;;23.92;12.35;;;9.60;99.90;;;;;;5022602;28;20081;-85
2023/02/24 08:25:17;;;;;;;29.05;12.82;;;9.70;99.90;;;;;;5004420;28;20056;-85
2023/02/24 08:27:54;;;;;;;20.38;13.25;;;9.80;99.90;;;;;;5020583;28;20062;-85
2023/02/24 08:30:37;;;;;;;23.45;12.60;;;9.90;99.90;;;;;;5006245;28;20056;-84
2023/02/24 08:33:07;;;;;;;21.15;11.52;;;10.00;99.90;;;;;;5014954;28;20043;-86
2023/02/24 08:35:36;;;;;;;20.58;11.20;;;10.00;99.90;;;;;;5015973;28;20527;-85
2023/02/24 08:38:16;;;;;;;28.15;12.85;;;10.10;99.90;;;;;;5013008;28;20058;-85
2023/02/24 08:40:53;;;;;;;25.70;13.68;;;10.20;99.90;;;;;;5009658;28;20112;-85
2023/02/24 08:43:33;;;;;;;32.63;13.25;;;10.20;99.90;;;;;;5017060;28;20117;-84
2023/02/24 08:46:12;;;;;;;28.98;13.90;;;10.30;99.90;;;;;;5019780;28;20042;-85
2023/02/24 08:48:42;;;;;;;22.35;12.00;;;10.40;99.90;;;;;;5027613;28;20046;-86
2023/02/24 08:51:34;;;;;;;26.70;13.57;;;10.40;99.90;;;;;;5035967;28;20128;-85
2023/02/24 08:54:09;;;;;;;21.75;12.60;;;10.40;99.90;;;;;;5014975;28;20038;-86
2023/02/24 08:56:42;;;;;;;21.90;12.65;;;10.50;99.90;;;;;;5014938;28;20432;-83
2023/02/24 09:02:17;;;;;;;26.05;12.20;;;10.40;99.90;;;;;;5026681;28;20042;-84
2023/02/24 09:04:44;;;;;;;29.23;13.82;;;10.40;99.90;;;;;;5021888;28;20045;-85
2023/02/24 09:07:34;;;;;;;25.20;12.68;;;10.40;99.90;;;;;;5018719;28;20413;-84
2023/02/24 09:10:10;;;;;;;25.98;12.95;;;10.40;99.90;;;;;;5027703;28;20037;-84
2023/02/24 09:12:40;;;;;;;20.52;11.80;;;10.40;99.90;;;;;;5011555;28;20080;-84
2023/02/24 09:15:08;;;;;;;24.10;12.57;;;10.30;99.90;;;;;;5016757;28;20160;-83
2023/02/24 09:22:56;;;;;;;26.80;15.27;;;10.20;99.90;;;;;;5016038;28;20088;-84
2023/02/24 09:25:39;;;;;;;30.88;16.45;;;10.20;99.90;;;;;;5031114;28;20057;-84
2023/02/24 09:28:17;;;;;;;36.45;18.42;;;10.10;99.90;;;;;;5016380;28;20046;-85
2023/02/24 09:30:54;;;;;;;33.78;18.95;;;10.10;99.90;;;;;;5009514;28;20053;-84
2023/02/24 09:33:40;;;;;;;34.30;19.30;;;10.10;99.90;;;;;;5021077;28;20052;-84
2023/02/24 09:36:13;;;;;;;36.22;18.98;;;10.10;99.90;;;;;;5015837;28;20045;-85
2023/02/24 09:41:55;;;;;;;34.42;19.92;;;10.20;99.90;;;;;;5028144;28;20440;-83
2023/02/24 09:44:36;;;;;;;41.25;20.25;;;10.30;99.90;;;;;;5031401;28;20052;-84
2023/02/24 09:47:17;;;;;;;41.58;21.38;;;10.40;99.90;;;;;;5031675;28;20093;-84
2023/02/24 09:49:57;;;;;;;47.58;21.83;;;10.40;99.90;;;;;;5029623;28;20120;-84
2023/02/24 09:52:38;;;;;;;;;;;10.50;99.90;;;;;;5025709;28;20101;-85
2023/02/24 09:55:26;;;;;;;44.13;20.70;;;10.60;99.90;;;;;;5028754;28;19921;-84
2023/02/24 10:00:55;;;;;;;42.05;19.33;;;10.60;99.90;;;;;;5032135;28;20118;-84
2023/02/24 10:03:42;;;;;;;40.00;20.23;;;10.30;99.90;;;;;;5024843;28;20164;-84
2023/02/24 10:06:19;;;;;;;39.30;19.92;;;10.40;99.90;;;;;;5025974;28;20500;-85
2023/02/24 10:08:54;;;;;;;38.00;20.90;;;10.40;99.90;;;;;;5024717;28;20097;-83
2023/02/24 10:11:32;;;;;;;43.38;20.48;;;10.50;99.90;;;;;;5031282;28;20049;-84
2023/02/24 10:14:05;;;;;;;47.05;21.73;;;10.50;99.90;;;;;;5030658;28;20072;-84
2023/02/24 10:16:40;;;;;;;40.58;19.67;;;10.50;99.90;;;;;;5022646;28;20417;-84
2023/02/24 10:19:29;;;;;;;37.75;20.45;;;10.50;99.90;;;;;;5020498;28;20038;-84
2023/02/24 10:22:07;;;;;;;37.13;18.92;;;10.60;99.90;;;;;;5024996;28;20049;-84
2023/02/24 10:25:09;;;;;;;36.10;19.25;;;10.70;99.90;;;;;;5026829;28;20076;-84
2023/02/24 10:27:40;;;;;;;43.95;20.67;;;10.70;99.90;;;;;;5053387;28;20080;-84
2023/02/24 10:30:26;;;;;;;38.65;19.08;;;10.80;99.90;;;;;;5042814;28;20094;-84
2023/02/24 10:32:58;;;;;;;44.63;17.95;;;10.80;99.90;;;;;;5033963;28;20070;-84
2023/02/24 10:35:32;;;;;;;39.20;19.30;;;11.00;99.90;;;;;;5039000;28;20033;-84
2023/02/24 10:38:07;;;;;;;37.08;18.63;;;11.10;99.90;;;;;;5040789;28;20144;-84
2023/02/24 10:40:55;;;;;;;33.60;17.80;;;11.20;99.90;;;;;;5057554;28;20049;-84
2023/02/24 10:43:31;;;;;;;37.67;18.67;;;11.30;99.90;;;;;;5062047;28;20045;-85
2023/02/24 10:46:15;;;;;;;35.17;18.95;;;11.30;99.90;;;;;;5034221;28;20077;-84
2023/02/24 10:48:59;;;;;;;37.70;19.67;;;11.40;99.90;;;;;;5053735;28;20042;-85
2023/02/24 10:51:50;;;;;;;34.67;18.00;;;11.50;99.90;;;;;;5033184;28;20601;-84
2023/02/24 10:54:41;;;;;;;33.20;18.08;;;11.50;99.90;;;;;;5032256;28;20049;-84
2023/02/24 10:57:35;;;;;;;38.22;18.02;;;11.60;99.90;;;;;;5030209;28;20045;-84
2023/02/24 11:03:09;;;;;;;32.78;16.92;;;11.70;99.90;;;;;;5023103;28;20042;-84
2023/02/24 11:06:07;;;;;;;40.88;17.40;;;11.70;99.90;;;;;;5026280;28;20430;-84
2023/02/24 11:08:38;;;;;;;35.63;17.83;;;11.80;99.90;;;;;;5023390;28;20049;-83
2023/02/24 11:11:29;;;;;;;31.23;16.48;;;11.90;99.90;;;;;;5042835;28;20097;-84
2023/02/24 11:19:43;;;;;;;33.13;17.40;;;12.20;99.90;;;;;;5020128;28;20077;-82
2023/02/24 11:22:16;;;;;;;28.45;16.10;;;12.20;99.90;;;;;;5027570;28;20083;-84
2023/02/24 11:24:44;;;;;;;35.60;16.38;;;12.20;99.90;;;;;;5028465;28;20084;-84
2023/02/24 11:27:13;;;;;;;32.63;17.15;;;12.30;99.90;;;;;;5043256;28;20041;-85
2023/02/24 11:29:49;;;;;;;34.17;16.73;;;12.30;99.90;;;;;;5034903;28;20053;-86
2023/02/24 11:32:39;;;;;;;30.10;16.13;;;12.40;99.90;;;;;;5040154;28;20085;-84
2023/02/24 11:35:19;;;;;;;27.95;16.00;;;12.40;99.90;;;;;;5032983;28;20049;-84
2023/02/24 11:38:12;;;;;;;38.67;16.83;;;12.30;99.90;;;;;;5031082;28;20084;-85
2023/02/24 11:40:44;;;;;;;30.10;16.50;;;12.40;99.90;;;;;;5023947;28;20291;-85
2023/02/24 11:43:17;;;;;;;37.17;16.08;;;12.30;99.90;;;;;;5019536;28;20152;-86
2023/02/24 11:45:56;;;;;;;30.17;15.55;;;12.30;99.90;;;;;;5024262;28;20050;-86
2023/02/24 11:48:30;;;;;;;26.70;14.02;;;12.30;99.90;;;;;;5025264;28;20045;-86
2023/02/24 11:51:02;;;;;;;34.15;14.40;;;12.40;99.90;;;;;;5020168;28;20042;-86
2023/02/24 11:53:35;;;;;;;30.13;14.63;;;12.50;99.90;;;;;;5032588;28;20050;-87
2023/02/24 11:56:15;;;;;;;38.13;16.70;;;12.50;99.90;;;;;;5031229;28;20126;-86
2023/02/24 11:58:56;;;;;;;30.00;15.32;;;12.60;99.90;;;;;;5013905;28;20049;-86
2023/02/24 12:01:48;;;;;;;28.23;14.82;;;12.60;99.90;;;;;;5016611;28;20112;-85
2023/02/24 12:04:25;;;;;;;30.48;16.70;;;12.80;99.90;;;;;;5024144;28;20056;-85
2023/02/24 12:07:07;;;;;;;28.33;15.73;;;12.90;99.90;;;;;;5011995;28;20046;-86
2023/02/24 12:09:46;;;;;;;29.50;16.35;;;12.90;99.90;;;;;;5015344;28;20135;-86
2023/02/24 12:12:26;;;;;;;35.63;18.00;;;12.80;99.90;;;;;;5014363;28;20128;-86
2023/02/24 12:14:58;;;;;;;33.35;16.17;;;12.80;99.90;;;;;;5015554;28;20049;-85
2023/02/24 12:17:40;;;;;;;33.10;16.75;;;12.80;99.90;;;;;;5020722;28;20132;-86
2023/02/24 12:20:28;;;;;;;35.50;15.95;;;12.70;99.90;;;;;;5020242;28;20058;-86
2023/02/24 12:23:01;;;;;;;33.60;18.42;;;12.70;99.90;;;;;;5016851;28;20397;-85
2023/02/24 12:25:35;;;;;;;30.45;15.45;;;12.70;99.90;;;;;;5011760;28;20057;-85
2023/02/24 12:28:37;;;;;;;33.22;15.93;;;12.70;99.90;;;;;;5039916;28;20144;-85
2023/02/24 12:31:22;;;;;;;30.77;16.00;;;12.70;99.90;;;;;;5017850;28;20046;-86
2023/02/24 12:34:29;;;;;;;32.72;17.08;;;12.50;99.90;;;;;;5014573;28;20042;-86
2023/02/24 12:37:17;;;;;;;31.60;16.67;;;12.50;99.90;;;;;;5021766;28;20132;-85
2023/02/24 12:39:59;;;;;;;29.83;15.75;;;12.40;99.90;;;;;;5009305;28;20472;-86
2023/02/24 12:42:57;;;;;;;28.48;16.13;;;12.30;99.90;;;;;;5025061;28;20057;-86
2023/02/24 12:45:45;;;;;;;30.52;15.88;;;12.30;99.90;;;;;;5034525;28;20060;-86
2023/02/24 12:48:26;;;;;;;29.42;16.88;;;12.30;99.90;;;;;;5020373;28;20108;-86
2023/02/24 12:51:04;;;;;;;33.33;16.98;;;12.40;99.90;;;;;;5017799;28;20042;-85
2023/02/24 12:53:41;;;;;;;32.35;15.63;;;12.40;99.90;;;;;;5017632;28;20089;-85
2023/02/24 12:56:17;;;;;;;30.08;15.10;;;12.40;99.90;;;;;;5021967;28;20045;-86
2023/02/24 12:58:49;;;;;;;29.20;14.20;;;12.40;99.90;;;;;;5009890;28;20048;-86
2023/02/24 13:01:53;;;;;;;30.45;15.65;;;12.50;99.90;;;;;;5020763;28;20056;-86
2023/02/24 13:05:02;;;;;;;25.48;14.45;;;12.60;99.90;;;;;;5018321;28;20053;-83
2023/02/24 13:07:38;;;;;;;32.83;16.05;;;12.50;99.90;;;;;;5032880;28;20054;-82
2023/02/24 13:10:17;;;;;;;31.08;15.65;;;12.50;99.90;;;;;;5022679;28;20042;-83
2023/02/24 13:13:09;;;;;;;30.98;14.80;;;12.50;99.90;;;;;;5024113;28;20053;-83
2023/02/24 13:15:36;;;;;;;32.65;15.23;;;12.50;99.90;;;;;;5022226;28;20054;-84
2023/02/24 13:18:02;;;;;;;32.35;15.55;;;12.50;99.90;;;;;;5033380;28;20050;-84
2023/02/24 13:20:31;;;;;;;30.75;14.98;;;12.40;99.90;;;;;;5018193;28;20081;-81
2023/02/24 13:23:00;;;;;;;32.17;16.05;;;12.50;99.90;;;;;;5024454;28;20059;-83
2023/02/24 13:25:36;;;;;;;31.13;15.90;;;12.40;99.90;;;;;;5024577;28;20042;-81
2023/02/24 13:28:17;;;;;;;29.50;15.25;;;12.50;99.90;;;;;;5032424;28;20046;-84
2023/02/24 13:30:44;;;;;;;27.40;14.52;;;12.50;99.90;;;;;;5031187;28;20065;-83
2023/02/24 13:33:17;;;;;;;31.35;16.27;;;12.70;99.90;;;;;;5025611;28;20077;-83
2023/02/24 13:36:03;;;;;;;27.65;15.02;;;12.70;99.90;;;;;;5017607;28;20050;-83
2023/02/24 13:38:30;;;;;;;29.48;15.60;;;12.70;99.90;;;;;;5023224;28;20125;-82
2023/02/24 13:41:34;;;;;;;31.02;14.73;;;12.70;99.90;;;;;;5024542;28;20073;-83
2023/02/24 13:44:20;;;;;;;32.13;15.55;;;12.70;99.90;;;;;;5026905;28;20402;-83
2023/02/24 13:47:24;;;;;;;30.13;15.77;;;12.60;99.90;;;;;;5035885;28;20485;-83
2023/02/24 13:50:11;;;;;;;36.90;16.05;;;12.50;99.90;;;;;;4959419;28;20042;-83
2023/02/24 13:53:08;;;;;;;36.03;15.88;;;12.50;99.90;;;;;;5016336;28;20184;-83